Site contains unofficial IBTrACS data. Visit the IBTrACS Website to access archived data.

2010 Tropical Cyclone ANGGREK (2010302S08098)


IBTrACS version v04r00. Visit IBTrACS website for data access.
Please direct all questions to the IBTrACS Q and A forum

Storm track - Intensity - Wind Radii - Intensity Data - Source Data - All data

Summary Information

Satellite image near maximum intensity
Storm ID 2010302S08098
Start Oct 29 06Z
Max Intensity 55 kt (Nov 1 18Z), 982 mb (Nov 1 18Z)
End Nov 6 12Z
ATCF IDs SH022011
Track status Best track data.

Storm track plot

Map of storm track

Intensity plots

Map of storm track

Radial wind information

Map of storm track

Position and Intensity Table

BASIN ISO_TIME_________ NATURE LAT LON WMO WIND WMO PRES USA WIND USA PRES BOM WIND BOM PRES
degrees north degrees east kts mb kts mb kts mb
SI 2010-10-29 06:00:00 NR -7.60 97.50 20 1007
SI 09:00:00 NR -7.47 97.31 22 1005
SI 12:00:00 TS -7.40 97.10 25 1004
SI 15:00:00 TS -7.43 96.85 27 1002
SI 18:00:00 TS -7.50 96.60 30 1000
SI 19:17:00 TS -7.50 96.50 30 1000
SI 21:00:00 TS -7.51 96.40 30 1000
SI 2010-10-30 00:00:00 TS -7.56 96.24 25 1002 30 1000 25 1002
SI 03:00:00 TS -7.61 96.10 30 1000 27 1002
SI 06:00:00 TS -7.70 95.95 30 1002 30 1000 30 1002
SI 07:34:00 TS -7.76 95.86 30 1000 30 1002
SI 09:00:00 TS -7.78 95.82 30 1000 30 1002
SI 11:11:00 TS -7.79 95.81 30 1000 30 1002
SI 12:00:00 NR -7.80 95.80 30 1002 30 1000 30 1002
SI 15:00:00 NR -7.91 95.83 32 998 30 1002
SI 18:00:00 TS -8.05 95.90 30 1002 35 996 30 1002
SI 21:00:00 TS -8.16 95.97 37 994 32 1001
SI 23:19:00 TS -8.23 96.03 39 993 34 1000
SI 2010-10-31 00:00:00 TS -8.25 96.05 35 1000 40 993 35 1000
SI 01:47:00 TS -8.34 96.14 40 993 35 999
SI 03:00:00 TS -8.42 96.22 40 993 35 999
SI 06:00:00 TS -8.60 96.40 35 998 40 993 35 998
SI 07:52:00 TS -8.69 96.50 40 993 35 998
SI 09:00:00 TS -8.76 96.56 40 993 35 998
SI 11:55:00 TS -8.90 96.70 40 993 35 998
SI 12:00:00 TS -8.90 96.70 35 998 40 993 35 998
SI 15:00:00 TS -9.04 96.84 42 991 35 998
SI 18:00:00 TS -9.20 97.05 35 998 45 989 35 998
SI 19:05:00 TS -9.24 97.13 45 988 35 998
SI 21:00:00 TS -9.41 97.10 47 987 35 998
SI 2010-11-01 00:00:00 TS -9.80 97.21 35 998 50 985 35 998
SI 01:35:00 TS -9.98 97.66 50 985 35 998
SI 03:00:00 TS -10.13 97.85 50 985 35 998
SI 06:00:00 TS -10.45 97.90 35 998 50 985 35 998
SI 06:57:00 TS -10.55 97.92 50 985 35 997
SI 07:21:00 TS -10.67 97.93 50 985 36 997
SI 09:00:00 TS -10.98 98.01 50 985 37 997
SI 11:54:00 TS -11.15 98.15 50 985 39 996
SI 12:00:00 TS -11.15 98.15 40 996 50 985 40 996
SI 15:00:00 TS -11.36 98.20 52 983 40 995
SI 18:00:00 TS -11.60 98.25 40 995 55 982 40 995
SI 21:00:00 TS -11.79 98.28 55 982 37 996
SI 22:27:00 TS -11.89 98.26 55 982 36 996
SI 2010-11-02 00:00:00 TS -12.00 98.20 35 997 55 982 35 997
SI 03:00:00 TS -12.23 98.11 55 982 35 997
SI 06:00:00 TS -12.40 98.05 35 998 55 982 35 998
SI 06:01:00 TS -12.40 98.05 55 982 35 998
SI 09:00:00 TS -12.60 97.98 55 982 35 998
SI 12:00:00 TS -12.85 97.90 35 998 55 982 35 998
SI 14:02:00 TS -12.97 97.89 55 982 35 998
SI 15:00:00 TS -13.05 97.87 55 982 35 998
SI 18:00:00 TS -13.35 97.80 35 998 55 982 35 998
SI 20:52:00 TS -13.65 97.71 52 983 35 998
SI 21:00:00 TS -13.66 97.70 52 983 35 998
SI 2010-11-03 00:00:00 TS -13.85 97.55 35 998 50 985 35 998
SI 01:13:00 TS -13.94 97.47 50 985 33 998
SI 03:00:00 TS -14.07 97.38 50 985 32 999
SI 06:00:00 TS -14.30 97.25 30 1001 50 985 30 1001
SI 07:08:00 TS -14.40 97.22 49 985 30 1001
SI 09:00:00 TS -14.54 97.08 47 987 30 1001
SI 12:00:00 TS -14.70 96.70 30 1001 45 989 30 1001
SI 13:49:00 TS -14.81 96.46 43 990 30 1001
SI 15:00:00 TS -14.87 96.33 42 991 30 1001
SI 18:00:00 TS -15.00 96.05 30 1001 40 993 30 1001
SI 19:59:00 TS -15.08 95.87 38 993 30 1001
SI 21:00:00 TS -15.11 95.77 37 994 30 1002
SI 23:10:00 TS -15.15 95.51 35 995 30 1002
SI 2010-11-04 00:00:00 TS -15.15 95.40 30 1003 35 996 30 1003
SI 00:20:00 TS -15.15 95.38 34 996 30 1003
SI 03:00:00 TS -15.11 95.01 32 998 30 1003
SI 06:00:00 TS -15.05 94.45 30 1004 30 1000 30 1004
SI 07:51:00 TS -15.04 94.18 30 1000 30 1003
SI 09:00:00 TS -15.03 94.00 30 1000 30 1003
SI 11:46:00 TS -15.00 93.67 30 1000 30 1003
SI 12:00:00 TS -15.00 93.65 30 1003 30 1000 30 1003
SI 15:00:00 TS -15.07 93.28 30 1000 30 1003
SI 18:00:00 TS -15.20 92.75 30 1003 30 1000 30 1003
SI 21:00:00 TS -15.28 92.29 30 1000 30 1003
SI 22:58:00 TS -15.38 91.95 30 1000 30 1003
SI 2010-11-05 00:00:00 TS -15.45 91.75 30 1003 30 1000 30 1003
SI 00:08:00 TS -15.45 91.74 29 1000 29 1003
SI 03:00:00 TS -15.62 91.09 27 1002 27 1005
SI 04:52:00 TS -15.77 90.64 25 1003 25 1006
SI 06:00:00 TS -15.88 90.46 25 1007 25 1004 25 1007
SI 09:00:00 TS -16.13 90.05 22 1005
SI 12:00:00 NR -16.40 89.70 20 1007
SI 15:00:00 NR -16.67 89.42 20 1007
SI 18:00:00 NR -17.00 89.20 20 1007
SI 21:00:00 NR -17.37 88.96 17 1008
SI 2010-11-06 00:00:00 NR -17.90 88.80 15 1010
SI 03:00:00 NR -18.67 88.73 15 1010
SI 06:00:00 NR -19.60 88.80 15 1010
SI 09:00:00 NR -20.55 89.05 15 1010
SI 12:00:00 NR -21.50 89.40 15 1010

Source Information

Agency Information
USA bsh022011.dat
TOKYO
CMA
HKO
NEWDELHI
REUNION
BOM IDCKMSTM0S.csv:Line=24018:Anggrek
NADI
WELLINGTON
DS824
TD9636
TD9635
NEUMANN
MLC

All available IBTrACS Data

SEASON BASIN SUBBASIN ISO_TIME_________ NATURE LAT LON WMO WIND WMO PRES WMO AGENCY DIST2LAND LANDFALL IFLAG USA AGENCY USA ATCF_ID USA LAT USA LON USA STATUS USA WIND USA PRES USA SSHS USA R34 USA R50 USA POCI USA ROCI USA RMW BOM LAT BOM LON BOM TYPE BOM WIND BOM PRES BOM TNUM BOM CI BOM RMW BOM R34 BOM ROCI BOM POCI BOM POS_METHOD BOM PRES_METHOD USA GUST BOM GUST BOM GUST_PER STORM SPEED STORM DIR
Year degrees north degrees east kts mb km km degrees north degrees east kts mb 1 nmile nmile mb nmile nmile degrees north degrees east kts mb 1 1 nmile nmile nmile mb kts kts second kts degrees
2011 SI WA 2010-10-29 06:00:00 NR -7.60 97.50 667 665 O_____________ jtwc_sh SH022011 -7.60 97.50 DB 20 1007 -3 5 305
2011 SI WA 09:00:00 NR -7.47 97.31 669 658 P_____________ SH022011 -7.47 97.31 DB 22 1005 -3 4 297
2011 SI WA 12:00:00 TS -7.40 97.10 665 665 O_____________ jtwc_sh SH022011 -7.40 97.10 TD 25 1004 -1 5 275
2011 SI WA 15:00:00 TS -7.43 96.85 673 673 P_____________ SH022011 -7.43 96.85 TD 27 1002 -1 5 259
2011 SI WA 18:00:00 TS -7.50 96.60 696 696 O_____________ jtwc_sh SH022011 -7.50 96.60 TD 30 1000 -1 1008 150 50 5 259
2011 SI WA 19:17:00 TS -7.50 96.50 bom 700 700 P_____O_______ SH022011 -7.52 96.50 TD 30 1000 -1 1008 150 50 -7.40 96.50 20 4 266
2011 SI WA 21:00:00 TS -7.51 96.40 705 705 P_____P_______ SH022011 -7.55 96.39 TD 30 1000 -1 1008 150 50 -7.44 96.43 20 3 257
2011 SI WA 2010-10-30 00:00:00 TS -7.56 96.24 25 1002 bom 725 725 O_____O_______ jtwc_sh SH022011 -7.60 96.20 TD 30 1000 -1 1008 150 50 -7.50 96.30 20 25 1002 2.50 2.50 179 1010 3 5 45 45 3 252
2011 SI WA 03:00:00 TS -7.61 96.10 730 730 P_____P_______ SH022011 -7.65 96.04 TD 30 1000 -1 1008 155 45 -7.57 96.16 20 27 1002 179 1010 3 244
2011 SI WA 06:00:00 TS -7.70 95.95 30 1002 bom 745 745 O_____O_______ jtwc_sh SH022011 -7.70 95.90 TD 30 1000 -1 1008 160 40 -7.70 96.00 20 30 1002 3.00 3.00 179 1010 3 5 45 45 4 238
2011 SI WA 07:34:00 TS -7.76 95.86 bom 760 760 P_____I_______ SH022011 -7.72 95.83 TD 30 1000 -1 1007 160 40 -7.80 95.90 20 30 1002 179 1010 3 238
2011 SI WA 09:00:00 TS -7.78 95.82 765 765 P_____P_______ SH022011 -7.73 95.77 TD 30 1000 -1 1007 160 40 -7.82 95.88 20 30 1002 179 1010 1 245
2011 SI WA 11:11:00 TS -7.79 95.81 bom 765 765 P_____I_______ SH022011 -7.78 95.71 TD 30 1000 -1 1007 160 40 -7.80 95.90 20 30 1002 179 1010 1 0
2011 SI WA 12:00:00 NR -7.80 95.80 30 1002 bom 765 765 O_____O_______ jtwc_sh SH022011 -7.80 95.70 DB 30 1000 -3 1007 160 40 -7.80 95.90 20 30 1002 3.00 3.00 179 1010 3 5 45 45 2 175
2011 SI WA 15:00:00 NR -7.91 95.83 775 775 P_____P_______ SH022011 -7.93 95.71 DB 32 998 -3 1007 167 40 -7.88 95.94 20 30 1002 179 1010 3 159
2011 SI WA 18:00:00 TS -8.05 95.90 30 1002 bom 780 785 O_____O_______ jtwc_sh SH022011 -8.10 95.80 TS 35 996 0 1007 175 40 -8.00 96.00 20 30 1002 3.00 3.00 179 1010 3 5 45 45 3 151
2011 SI WA 21:00:00 TS -8.16 95.97 795 795 P_____P_______ SH022011 -8.25 95.93 TS 37 994 0 1007 175 32 -8.08 96.00 20 32 1001 164 1009 3 145
2011 SI WA 23:19:00 TS -8.23 96.03 bom 795 795 P_____I_______ SH022011 -8.37 96.06 TS 39 993 0 1007 175 26 -8.10 96.00 20 34 1000 153 1008 2 137
2011 SI WA 2010-10-31 00:00:00 TS -8.25 96.05 35 1000 bom 790 790 O_____O_______ jtwc_sh SH022011 -8.40 96.10 TS 40 993 0 25,25,25,25 1007 175 25 -8.10 96.00 21 35 1000 3.00 3.00 44 , ,79, 150 1008 3 5 49 49 4 135
2011 SI WA 01:47:00 TS -8.34 96.14 bom 800 800 P_____I_______ SH022011 -8.49 96.19 TS 40 993 0 29,29,30,30 1007 177 25 -8.20 96.10 21 35 999 44 , ,79, 150 1008 5 136
2011 SI WA 03:00:00 TS -8.42 96.22 806 806 P_____P_______ SH022011 -8.55 96.25 TS 40 993 0 32,32,35,35 1007 180 25 -8.28 96.18 21 35 999 44 , ,79, 150 1008 5 135
2011 SI WA 06:00:00 TS -8.60 96.40 35 998 bom 818 818 O_____O_______ jtwc_sh SH022011 -8.70 96.40 TS 40 993 0 40,40,45,45 1007 185 25 -8.50 96.40 21 35 998 3.00 3.00 44 , ,79, 150 1008 3 5 49 49 5 135
2011 SI WA 07:52:00 TS -8.69 96.50 bom 825 821 P_____I_______ SH022011 -8.79 96.49 TS 40 993 0 40,40,45,45 1006 185 25 -8.60 96.50 21 35 998 44 , ,79, 150 1008 5 135
2011 SI WA 09:00:00 TS -8.76 96.56 828 820 P_____P_______ SH022011 -8.84 96.55 TS 40 993 0 40,40,45,45 1006 185 25 -8.67 96.57 21 35 998 44 , ,79, 150 1008 4 136
2011 SI WA 11:55:00 TS -8.90 96.70 bom 827 2364 P_____I_______ SH022011 -9.00 96.70 TS 40 993 0 40,40,45,45 1006 185 25 -8.80 96.70 21 35 998 44 , ,79, 150 1008 4 136
2011 SI WA 12:00:00 TS -8.90 96.70 35 998 bom 827 826 O_____O_______ jtwc_sh SH022011 -9.00 96.70 TS 40 993 0 40,40,45,45 1006 185 25 -8.80 96.70 21 35 998 3.00 3.00 44 , ,79, 150 1008 3 5 49 49 4 136
2011 SI WA 15:00:00 TS -9.04 96.84 826 818 P_____P_______ SH022011 -9.18 96.84 TS 42 991 0 40,45,47,42 1006 192 25 -8.89 96.83 21 35 998 44 , ,79, 150 1008 5 131
2011 SI WA 18:00:00 TS -9.20 97.05 35 998 bom 818 818 O_____O_______ jtwc_sh SH022011 -9.40 97.00 TS 45 989 0 40,50,50,40 1006 200 25 -9.00 97.10 21 35 998 3.00 3.00 44 , ,79, 150 1008 3 5 49 49 5 124
2011 SI WA 19:05:00 TS -9.24 97.13 bom 818 818 P_____I_______ SH022011 -9.48 97.07 TS 45 988 0 40,50,50,40 1006 200 25 -9.00 97.20 21 35 998 44 , ,79, 150 1008 4 170
2011 SI WA 21:00:00 TS -9.41 97.10 834 834 P_____P_______ SH022011 -9.64 97.19 TS 47 987 0 40,50,50,40 1006 200 25 -9.19 97.00 21 35 998 44 , ,79, 150 1008 7 173
2011 SI WA 2010-11-01 00:00:00 TS -9.80 97.21 35 998 bom 859 840 O_____O_______ jtwc_sh SH022011 -9.90 97.40 TS 50 985 0 40,50,50,40 25,25,25,25 1006 200 25 -9.70 97.01 21 35 998 3.50 3.50 44 , ,79, 150 1008 3 5 49 49 10 136
2011 SI WA 01:35:00 TS -9.98 97.66 bom 842 834 P_____I_______ SH022011 -10.05 97.51 TS 50 985 0 46,53,53,43 1005 196 23 -9.90 97.80 21 35 998 44 , ,79, 150 1008 14 117
2011 SI WA 03:00:00 TS -10.13 97.85 835 835 P_____P_______ SH022011 -10.19 97.61 TS 50 985 0 52,57,57,47 1005 192 22 -10.07 98.09 21 35 998 44 , ,79, 150 1008 7 153
2011 SI WA 06:00:00 TS -10.45 97.90 35 998 bom 860 860 O_____O_______ jtwc_sh SH022011 -10.50 97.80 TS 50 985 0 65,65,65,55 1004 185 20 -10.40 98.00 21 35 998 3.50 3.50 44 , ,79, 150 1008 3 3 49 49 6 171
2011 SI WA 06:57:00 TS -10.55 97.92 bom 869 878 P_____I_______ SH022011 -10.59 97.85 TS 50 985 0 62,65,65,56 1004 185 20 -10.50 98.00 21 35 997 44 , ,79, 150 1008 10 171
2011 SI WA 07:21:00 TS -10.67 97.93 bom 886 886 P_____I_______ SH022011 -10.63 97.86 TS 50 985 0 61,65,65,57 1004 185 21 -10.70 98.00 21 36 997 44 , ,79, 150 1008 13 169
2011 SI WA 09:00:00 TS -10.98 98.01 906 906 P_____P_______ SH022011 -10.80 97.92 TS 50 985 0 57,65,65,60 1004 185 22 -11.16 98.10 21 37 997 44 , ,79, 150 1008 7 156
2011 SI WA 11:54:00 TS -11.15 98.15 bom 909 2364 P_____I_______ SH022011 -11.09 98.00 TS 50 985 0 50,65,65,64 1004 185 24 -11.20 98.30 21 39 996 44 , ,79, 150 1008 4 141
2011 SI WA 12:00:00 TS -11.15 98.15 40 996 bom 902 902 O_____O_______ jtwc_sh SH022011 -11.10 98.00 TS 50 985 0 50,65,65,65 1004 185 25 -11.20 98.30 21 40 996 3.50 3.50 44 , ,79, 150 1008 3 5 55 55 4 164
2011 SI WA 15:00:00 TS -11.36 98.20 925 925 P_____P_______ SH022011 -11.41 98.07 TS 52 983 0 52,65,65,65 1003 190 25 -11.31 98.34 21 40 995 44 , ,79, 150 1008 5 168
2011 SI WA 18:00:00 TS -11.60 98.25 40 995 bom 929 929 O_____O_______ jtwc_sh SH022011 -11.70 98.10 TS 55 982 0 55,65,65,65 25,25,25,25 1003 195 25 -11.50 98.40 21 40 995 3.50 3.50 44 , ,79, 150 1008 3 5 70 55 55 4 171
2011 SI WA 21:00:00 TS -11.79 98.28 942 942 P_____P_______ SH022011 -11.96 98.12 TS 55 982 0 57,67,67,67 27,27,27,27 1003 192 25 -11.62 98.44 21 37 996 51 , ,79, 225 1008 4 0
2011 SI WA 22:27:00 TS -11.89 98.26 bom 948 948 P_____I_______ SH022011 -12.08 98.11 TS 55 982 0 58,68,68,68 28,28,28,28 1003 191 25 -11.70 98.40 21 36 996 55 , ,79, 261 1008 4 201
2011 SI WA 2010-11-02 00:00:00 TS -12.00 98.20 35 997 bom 964 964 O_____O_______ jtwc_sh SH022011 -12.20 98.10 TS 55 982 0 60,70,70,70 30,30,30,30 1003 190 25 -11.80 98.30 21 35 997 3.00 3.50 59 , ,79, 300 1008 3 5 49 49 5 204
2011 SI WA 03:00:00 TS -12.23 98.11 986 986 P_____P_______ SH022011 -12.47 98.04 TS 55 982 0 60,67,67,67 27,30,30,30 1003 185 22 -12.06 98.15 21 35 997 59 , ,79, 300 1008 4 200
2011 SI WA 06:00:00 TS -12.40 98.05 35 998 bom 999 999 O_____O_______ jtwc_sh SH022011 -12.60 98.00 TS 55 982 0 60,65,65,65 25,30,30,30 1003 180 20 -12.20 98.10 21 35 998 3.00 3.00 59 , ,79, 300 1008 3 5 49 49 4 197
2011 SI WA 06:01:00 TS -12.40 98.05 bom 1008 1008 O_____I_______ jtwc_sh SH022011 -12.60 98.00 TS 55 982 0 60,65,65,65 25,30,30,30 1003 180 20 -12.20 98.10 21 35 998 59 , ,79, 300 1008 4 200
2011 SI WA 09:00:00 TS -12.60 97.98 1022 1022 P_____P_______ SH022011 -12.77 97.97 TS 55 982 0 60,65,65,65 25,30,30,30 1003 180 20 -12.35 98.01 21 35 998 59 , ,79, 300 1008 5 198
2011 SI WA 12:00:00 TS -12.85 97.90 35 998 bom 1044 1052 O_____O_______ jtwc_sh SH022011 -13.10 97.90 TS 55 982 0 60,65,65,65 25,30,30,30 1003 180 20 -12.60 97.90 21 35 998 3.00 3.00 59 , ,79, 300 1008 3 5 49 49 5 195
2011 SI WA 14:02:00 TS -12.97 97.89 bom 1059 1059 P_____I_______ SH022011 -13.24 97.87 TS 55 982 0 58,63,63,63 1003 180 20 -12.70 97.90 21 35 998 59 , ,79, 300 1008 4 0
2011 SI WA 15:00:00 TS -13.05 97.87 1059 1059 P_____P_______ SH022011 -13.31 97.86 TS 55 982 0 57,62,62,62 1003 180 20 -12.79 97.89 21 35 998 59 , ,79, 300 1008 6 191
2011 SI WA 18:00:00 TS -13.35 97.80 35 998 bom 1089 1089 O_____O_______ jtwc_sh SH022011 -13.50 97.80 TS 55 982 0 55,60,60,60 1003 180 20 -13.20 97.80 21 35 998 2.50 3.00 59 , ,79, 300 1008 3 5 49 49 6 195
2011 SI WA 20:52:00 TS -13.65 97.71 bom 1119 2364 P_____I_______ SH022011 -13.69 97.72 TS 52 983 0 59,64,64,64 1003 184 20 -13.60 97.70 21 35 998 64 , ,79, 300 1008 6 198
2011 SI WA 21:00:00 TS -13.66 97.70 1127 1127 P_____P_______ SH022011 -13.70 97.71 TS 52 983 0 60,65,65,65 1003 185 20 -13.61 97.69 21 35 998 64 , ,79, 300 1008 5 217
2011 SI WA 2010-11-03 00:00:00 TS -13.85 97.55 35 998 bom 1142 1150 O_____O_______ jtwc_sh SH022011 -13.90 97.60 TS 50 985 0 65,70,70,70 30,30,30,30 1004 190 20 -13.80 97.50 21 35 998 3.00 3.00 70 , ,79, 300 1008 3 5 49 49 5 218
2011 SI WA 01:13:00 TS -13.94 97.47 bom 1158 1158 P_____I_______ SH022011 -13.97 97.55 TS 50 985 0 66,70,70,68 1004 187 20 -13.90 97.40 20 33 998 300 1008 6 218
2011 SI WA 03:00:00 TS -14.07 97.38 1181 1181 P_____P_______ SH022011 -14.08 97.46 TS 50 985 0 67,70,70,67 1004 185 20 -14.05 97.29 20 32 999 300 1008 5 211
2011 SI WA 06:00:00 TS -14.30 97.25 30 1001 bom 1204 1204 O_____O_______ jtwc_sh SH022011 -14.30 97.30 TS 50 985 0 70,70,70,65 1004 180 20 -14.30 97.20 20 30 1001 3.00 3.00 300 1008 3 5 45 45 5 205
2011 SI WA 07:08:00 TS -14.40 97.22 bom 1220 1220 P_____I_______ SH022011 -14.41 97.24 TS 49 985 0 69,69,69,64 1004 180 20 -14.40 97.20 20 30 1001 300 1008 6 215
2011 SI WA 09:00:00 TS -14.54 97.08 1235 1235 P_____P_______ SH022011 -14.61 97.13 TS 47 987 0 67,67,67,62 1004 180 20 -14.47 97.03 20 30 1001 300 1008 7 240
2011 SI WA 12:00:00 TS -14.70 96.70 30 1001 bom 1282 1282 O_____O_______ jtwc_sh SH022011 -14.90 96.90 TS 45 989 0 65,65,65,60 1004 180 20 -14.50 96.50 20 30 1001 2.50 3.00 300 1008 3 5 45 45 8 245
2011 SI WA 13:49:00 TS -14.81 96.46 bom 1305 1305 P_____I_______ SH022011 -15.02 96.72 TS 43 990 0 65,66,66,61 1004 180 20 -14.60 96.20 20 30 1001 300 1008 8 244
2011 SI WA 15:00:00 TS -14.87 96.33 1329 1329 P_____P_______ SH022011 -15.09 96.58 TS 42 991 0 65,67,67,62 1004 180 20 -14.66 96.07 20 30 1001 300 1008 6 245
2011 SI WA 18:00:00 TS -15.00 96.05 30 1001 bom 1352 1352 O_____O_______ jtwc_sh SH022011 -15.20 96.20 TS 40 993 0 65,70,70,65 1004 180 20 -14.80 95.90 20 30 1001 2.50 3.00 300 1008 3 5 45 45 6 245
2011 SI WA 19:59:00 TS -15.08 95.87 bom 1376 1376 P_____I_______ SH022011 -15.26 95.95 TS 38 993 0 65,70,70,65 1004 180 20 -14.90 95.80 20 30 1001 279 1008 6 247
2011 SI WA 21:00:00 TS -15.11 95.77 1384 1384 P_____P_______ SH022011 -15.28 95.82 TS 37 994 0 65,70,70,65 1004 180 20 -14.95 95.72 20 30 1002 269 1009 7 259
2011 SI WA 23:10:00 TS -15.15 95.51 bom 1416 1416 P_____I_______ SH022011 -15.30 95.52 TS 35 995 0 65,70,70,65 1004 180 20 -15.00 95.50 20 30 1002 247 1009 7 264
2011 SI WA 2010-11-04 00:00:00 TS -15.15 95.40 30 1003 bom 1417 1417 O_____O_______ jtwc_sh SH022011 -15.30 95.40 TS 35 996 0 65,70,70,65 1004 180 20 -15.00 95.40 20 30 1003 2.00 2.50 239 1010 3 5 45 45 7 270
2011 SI WA 00:20:00 TS -15.15 95.38 bom 1417 1417 P_____I_______ SH022011 -15.30 95.35 TS 34 996 0 1004 180 20 -15.00 95.40 20 30 1003 239 1010 8 276
2011 SI WA 03:00:00 TS -15.11 95.01 1450 1450 P_____P_______ SH022011 -15.26 94.95 TS 32 998 -1 1005 180 22 -14.96 95.06 20 30 1003 239 1010 10 276
2011 SI WA 06:00:00 TS -15.05 94.45 30 1004 bom 1485 1485 O_____O_______ jtwc_sh SH022011 -15.20 94.50 TD 30 1000 -1 1006 180 25 -14.90 94.40 20 30 1004 2.00 2.00 239 1010 3 5 45 45 10 275
2011 SI WA 07:51:00 TS -15.04 94.18 bom 1511 1511 P_____I_______ SH022011 -15.19 94.25 TD 30 1000 -1 -14.90 94.10 20 30 1003 239 1010 9 273
2011 SI WA 09:00:00 TS -15.03 94.00 1527 1527 P_____P_______ SH022011 -15.18 94.10 TD 30 1000 -1 -14.87 93.90 20 30 1003 239 1010 8 275
2011 SI WA 11:46:00 TS -15.00 93.67 bom 1548 1548 P_____I_______ SH022011 -15.20 93.73 TD 30 1000 -1 -14.80 93.60 20 30 1003 239 1010 7 275
2011 SI WA 12:00:00 TS -15.00 93.65 30 1003 bom 1548 1548 O_____O_______ jtwc_sh SH022011 -15.20 93.70 TD 30 1000 -1 -14.80 93.60 20 30 1003 2.00 2.00 239 1010 3 5 45 45 7 259
2011 SI WA 15:00:00 TS -15.07 93.28 1585 1585 P_____P_______ SH022011 -15.23 93.27 TD 30 1000 -1 -14.91 93.28 20 30 1003 239 1010 9 257
2011 SI WA 18:00:00 TS -15.20 92.75 30 1003 bom 1629 1629 O_____O_______ jtwc_sh SH022011 -15.30 92.80 TD 30 1000 -1 -15.10 92.70 20 30 1003 239 1010 3 5 45 45 10 258
2011 SI WA 21:00:00 TS -15.28 92.29 1673 1673 P_____P_______ SH022011 -15.38 92.27 TD 30 1000 -1 -15.18 92.31 20 30 1003 239 1010 10 257
2011 SI WA 22:58:00 TS -15.38 91.95 bom 1703 1710 P_____I_______ SH022011 -15.45 91.90 TD 30 1000 -1 -15.30 92.00 20 30 1003 239 1010 11 252
2011 SI WA 2010-11-05 00:00:00 TS -15.45 91.75 30 1003 bom 1718 1718 O_____O_______ jtwc_sh SH022011 -15.50 91.70 TD 30 1000 -1 -15.40 91.80 20 30 1003 239 1010 3 5 45 45 11 249
2011 SI WA 00:08:00 TS -15.45 91.74 bom 1733 1733 P_____I_______ SH022011 -15.51 91.67 TD 29 1000 -1 -15.40 91.80 20 29 1003 239 1010 13 255
2011 SI WA 03:00:00 TS -15.62 91.09 1776 1776 P_____P_______ SH022011 -15.68 91.08 TD 27 1002 -1 -15.54 91.10 20 27 1005 239 1010 14 253
2011 SI WA 04:52:00 TS -15.77 90.64 bom 1823 1823 P_____I_______ SH022011 -15.81 90.70 TD 25 1003 -1 -15.70 90.50 20 25 1006 239 1010 13 246
2011 SI WA 06:00:00 TS -15.88 90.46 25 1007 bom 1838 1838 O_____O_______ jtwc_sh SH022011 -15.90 90.50 TD 25 1004 -1 -15.80 90.30 20 25 1007 239 1010 3 5 45 45 10 238
2011 SI WA 09:00:00 TS -16.13 90.05 1885 1885 P_____________ SH022011 -16.13 90.05 TD 22 1005 -1 9 235
2011 SI MM 12:00:00 NR -16.40 89.70 1930 1930 O_____________ jtwc_sh SH022011 -16.40 89.70 DB 20 1007 -3 8 228
2011 SI MM 15:00:00 NR -16.67 89.42 1976 1976 P_____________ SH022011 -16.67 89.42 DB 20 1007 -3 8 219
2011 SI MM 18:00:00 NR -17.00 89.20 2015 2015 O_____________ jtwc_sh SH022011 -17.00 89.20 DB 20 1007 -3 8 212
2011 SI MM 21:00:00 NR -17.37 88.96 2064 2064 P_____________ SH022011 -17.37 88.96 DB 17 1008 -3 10 203
2011 SI MM 2010-11-06 00:00:00 NR -17.90 88.80 2123 2123 O_____________ jtwc_sh SH022011 -17.90 88.80 DB 15 1010 -3 13 190
2011 SI MM 03:00:00 NR -18.67 88.73 2205 2205 P_____________ SH022011 -18.67 88.73 DB 15 1010 -3 17 0
2011 SI MM 06:00:00 NR -19.60 88.80 2278 2278 O_____________ jtwc_sh SH022011 -19.60 88.80 DB 15 1010 -3 19 171
2011 SI MM 09:00:00 NR -20.55 89.05 2331 2323 P_____________ SH022011 -20.55 89.05 DB 15 1010 -3 20 164
2011 SI MM 12:00:00 NR -21.50 89.40 2364 O_____________ jtwc_sh SH022011 -21.50 89.40 DB 15 1010 -3 20 161